sensor_id;sensor_type;location;lat;lon;timestamp;pressure;altitude;pressure_sealevel;temperature;humidity
73896;BME280;73986;50.770;6.080;2024-03-17T08:04:39;100002.78;;;24.40;42.16
73896;BME280;73986;50.770;6.080;2024-03-17T08:14:40;99998.66;;;20.28;53.23
73896;BME280;73986;50.770;6.080;2024-03-17T08:24:43;99986.53;;;26.13;43.07
73896;BME280;73986;50.770;6.080;2024-03-17T08:34:46;99978.84;;;26.17;42.34
73896;BME280;73986;50.770;6.080;2024-03-17T08:44:50;99964.59;;;25.82;43.30
73896;BME280;73986;50.770;6.080;2024-03-17T08:54:51;99968.78;;;23.25;48.17
73896;BME280;73986;50.770;6.080;2024-03-17T09:04:54;99960.47;;;19.77;53.12
73896;BME280;73986;50.770;6.080;2024-03-17T09:14:56;99981.78;;;22.84;45.30
73896;BME280;73986;50.770;6.080;2024-03-17T09:24:59;99976.13;;;24.95;41.87
73896;BME280;73986;50.770;6.080;2024-03-17T09:35:01;99979.69;;;27.48;38.56
73896;BME280;73986;50.770;6.080;2024-03-17T09:45:06;99992.63;;;23.78;44.13
73896;BME280;73986;50.770;6.080;2024-03-17T09:55:15;99975.78;;;21.53;45.84
73896;BME280;73986;50.770;6.080;2024-03-17T10:05:23;99968.00;;;23.46;42.73
73896;BME280;73986;50.770;6.080;2024-03-17T10:15:25;99972.50;;;20.87;45.92
73896;BME280;73986;50.770;6.080;2024-03-17T10:25:29;99983.28;;;18.62;47.92
73896;BME280;73986;50.770;6.080;2024-03-17T10:35:32;99972.22;;;17.13;48.54
73896;BME280;73986;50.770;6.080;2024-03-17T10:45:36;99964.22;;;15.81;49.40
73896;BME280;73986;50.770;6.080;2024-03-17T10:55:43;99964.28;;;17.04;46.90
73896;BME280;73986;50.770;6.080;2024-03-17T11:05:48;99965.47;;;17.37;45.43
73896;BME280;73986;50.770;6.080;2024-03-17T11:15:51;99981.47;;;18.27;43.56
73896;BME280;73986;50.770;6.080;2024-03-17T11:25:55;99970.59;;;18.20;44.22
73896;BME280;73986;50.770;6.080;2024-03-17T11:36:32;99959.44;;;18.17;43.98
73896;BME280;73986;50.770;6.080;2024-03-17T11:46:38;99960.66;;;17.59;44.72
73896;BME280;73986;50.770;6.080;2024-03-17T11:56:40;99954.69;;;16.93;45.28
73896;BME280;73986;50.770;6.080;2024-03-17T12:06:46;99928.44;;;16.89;45.33
73896;BME280;73986;50.770;6.080;2024-03-17T12:16:49;99902.44;;;16.37;45.49
73896;BME280;73986;50.770;6.080;2024-03-17T12:26:54;99887.13;;;15.83;46.49
73896;BME280;73986;50.770;6.080;2024-03-17T12:36:58;99867.78;;;15.52;46.45
73896;BME280;73986;50.770;6.080;2024-03-17T12:47:03;99871.91;;;15.75;45.85
73896;BME280;73986;50.770;6.080;2024-03-17T12:57:05;99865.47;;;16.25;44.80
73896;BME280;73986;50.770;6.080;2024-03-17T13:07:26;99861.81;;;17.72;42.59
73896;BME280;73986;50.770;6.080;2024-03-17T13:17:28;99854.81;;;18.06;42.57
73896;BME280;73986;50.770;6.080;2024-03-17T13:27:32;99842.28;;;19.27;41.23
73896;BME280;73986;50.770;6.080;2024-03-17T13:37:34;99825.50;;;19.75;40.84
73896;BME280;73986;50.770;6.080;2024-03-17T13:47:37;99803.28;;;20.23;41.51
73896;BME280;73986;50.770;6.080;2024-03-17T13:57:38;99799.97;;;21.30;41.01
73896;BME280;73986;50.770;6.080;2024-03-17T14:07:42;99786.16;;;20.64;41.81
73896;BME280;73986;50.770;6.080;2024-03-17T14:17:46;99770.69;;;19.47;42.95
73896;BME280;73986;50.770;6.080;2024-03-17T14:27:50;99769.72;;;21.74;41.65
73896;BME280;73986;50.770;6.080;2024-03-17T14:37:52;99741.28;;;21.58;42.63
73896;BME280;73986;50.770;6.080;2024-03-17T14:47:55;99741.78;;;19.59;43.67
73896;BME280;73986;50.770;6.080;2024-03-17T14:57:58;99735.25;;;17.78;43.14
73896;BME280;73986;50.770;6.080;2024-03-17T15:08:03;99729.31;;;17.14;42.20
73896;BME280;73986;50.770;6.080;2024-03-17T15:18:05;99714.19;;;17.50;40.81
73896;BME280;73986;50.770;6.080;2024-03-17T15:28:09;99711.56;;;17.23;40.57
73896;BME280;73986;50.770;6.080;2024-03-17T15:38:12;99701.03;;;17.13;40.34
73896;BME280;73986;50.770;6.080;2024-03-17T15:48:15;99691.03;;;16.62;41.09
73896;BME280;73986;50.770;6.080;2024-03-17T15:58:17;99674.47;;;16.24;41.29
73896;BME280;73986;50.770;6.080;2024-03-17T16:08:21;99678.16;;;15.66;42.40
73896;BME280;73986;50.770;6.080;2024-03-17T16:18:23;99670.63;;;15.34;42.88
73896;BME280;73986;50.770;6.080;2024-03-17T16:28:27;99665.50;;;14.94;43.53
73896;BME280;73986;50.770;6.080;2024-03-17T16:38:29;99664.25;;;14.49;44.34
73896;BME280;73986;50.770;6.080;2024-03-17T16:48:33;99665.25;;;14.18;45.04
73896;BME280;73986;50.770;6.080;2024-03-17T16:58:34;99669.25;;;13.82;45.46
73896;BME280;73986;50.770;6.080;2024-03-17T17:08:37;99670.91;;;13.42;46.19
73896;BME280;73986;50.770;6.080;2024-03-17T17:18:50;99668.81;;;13.05;46.73
73896;BME280;73986;50.770;6.080;2024-03-17T17:28:55;99678.13;;;12.77;47.04
73896;BME280;73986;50.770;6.080;2024-03-17T17:38:57;99672.25;;;12.52;47.49
73896;BME280;73986;50.770;6.080;2024-03-17T17:49:00;99654.66;;;12.20;48.22
73896;BME280;73986;50.770;6.080;2024-03-17T17:59:02;99664.53;;;11.95;48.87
73896;BME280;73986;50.770;6.080;2024-03-17T18:09:05;99655.72;;;11.73;49.61
73896;BME280;73986;50.770;6.080;2024-03-17T18:19:14;99652.97;;;11.52;50.06
